Time;durP1;ratioP1;P1;durP2;ratioP2;P2;SDS_P1;SDS_P2;PMS_P1;PMS_P2;Temp;Humidity;BMP_temperature;BMP_pressure;BME280_temperature;BME280_humidity;BME280_pressure;Samples;Min_cycle;Max_cycle;Signal;HPM_P1;HPM_P2
2023/03/25 00:00:21;;;;;;;11.23;1.92;;;9.80;99.90;;;;;;4998361;28;20058;-63
2023/03/25 00:02:49;;;;;;;16.67;2.08;;;9.80;99.90;;;;;;5010485;28;20030;-62
2023/03/25 00:05:18;;;;;;;22.15;2.47;;;9.80;99.90;;;;;;4999975;28;20022;-62
2023/03/25 00:07:45;;;;;;;14.73;2.03;;;9.80;99.90;;;;;;5008568;28;20594;-62
2023/03/25 00:10:12;;;;;;;13.95;2.40;;;9.70;99.90;;;;;;5010534;28;20045;-63
2023/03/25 00:12:38;;;;;;;;;;;9.60;99.90;;;;;;5008513;28;20053;-64
2023/03/25 00:15:05;;;;;;;11.93;2.73;;;9.50;99.90;;;;;;5013018;28;19910;-64
2023/03/25 00:17:31;;;;;;;19.70;2.55;;;9.40;99.90;;;;;;5016054;28;20267;-74
2023/03/25 00:19:59;;;;;;;11.07;2.20;;;9.30;99.90;;;;;;5015861;28;20033;-66
2023/03/25 00:22:25;;;;;;;12.63;2.40;;;9.30;99.90;;;;;;5013140;28;20042;-66
2023/03/25 00:24:51;;;;;;;17.83;3.22;;;9.20;99.90;;;;;;5012206;28;20045;-65
2023/03/25 00:27:18;;;;;;;19.47;2.60;;;9.20;99.90;;;;;;4993783;28;20069;-65
2023/03/25 00:29:44;;;;;;;25.10;3.05;;;9.10;99.90;;;;;;5008469;28;20314;-65
2023/03/25 00:32:12;;;;;;;22.05;1.98;;;9.20;99.90;;;;;;5015998;28;20105;-64
2023/03/25 00:34:40;;;;;;;20.30;2.95;;;9.20;99.90;;;;;;5014321;28;20144;-76
2023/03/25 00:37:09;;;;;;;13.23;2.50;;;9.20;99.90;;;;;;5001007;28;20022;-65
2023/03/25 00:39:38;;;;;;;9.40;2.10;;;9.20;99.90;;;;;;5005927;28;20033;-64
2023/03/25 00:42:04;;;;;;;17.00;2.05;;;9.20;99.90;;;;;;5009755;28;20104;-66
2023/03/25 00:44:31;;;;;;;18.52;2.65;;;9.20;99.90;;;;;;5002032;28;20025;-63
2023/03/25 00:46:57;;;;;;;20.02;2.13;;;9.30;99.90;;;;;;5009058;28;20483;-64
2023/03/25 00:49:23;;;;;;;14.57;2.58;;;9.30;99.90;;;;;;5014888;28;20045;-65
2023/03/25 00:51:52;;;;;;;14.90;3.42;;;9.30;99.90;;;;;;5006182;28;20022;-66
2023/03/25 00:54:20;;;;;;;18.33;3.65;;;9.30;99.90;;;;;;5006752;28;20097;-63
2023/03/25 00:56:47;;;;;;;24.38;3.05;;;9.30;99.90;;;;;;5010764;28;20030;-65
2023/03/25 00:59:13;;;;;;;17.60;2.80;;;9.30;99.90;;;;;;4996302;28;20314;-65
2023/03/25 01:01:39;;;;;;;13.57;1.90;;;9.30;99.90;;;;;;5009020;28;20090;-63
2023/03/25 01:04:11;;;;;;;15.97;2.97;;;9.30;99.90;;;;;;5008358;28;20069;-64
2023/03/25 01:06:42;;;;;;;14.70;2.55;;;9.40;99.90;;;;;;5013702;28;20425;-76
2023/03/25 01:09:13;;;;;;;13.15;2.95;;;9.40;99.90;;;;;;5009940;28;20029;-65
2023/03/25 01:11:39;;;;;;;11.93;1.95;;;9.40;99.90;;;;;;5010126;28;20057;-63
2023/03/25 01:14:10;;;;;;;16.00;2.17;;;9.40;99.90;;;;;;5011349;28;20026;-66
2023/03/25 01:16:36;;;;;;;14.23;2.65;;;9.40;99.90;;;;;;5012865;28;20041;-65
2023/03/25 01:19:01;;;;;;;21.03;2.47;;;9.30;99.90;;;;;;5008532;28;20030;-65
2023/03/25 01:21:27;;;;;;;9.57;1.83;;;9.30;99.90;;;;;;5012300;28;20038;-65
2023/03/25 01:23:53;;;;;;;19.33;2.93;;;9.30;99.90;;;;;;4997361;28;20038;-64
2023/03/25 01:26:19;;;;;;;20.93;2.60;;;9.30;99.90;;;;;;5001053;28;20117;-64
2023/03/25 01:28:46;;;;;;;19.53;3.33;;;9.30;99.90;;;;;;5012564;28;20047;-64
2023/03/25 01:31:13;;;;;;;19.40;2.53;;;9.30;99.90;;;;;;5014425;28;20275;-66
2023/03/25 01:33:40;;;;;;;20.65;2.65;;;9.30;99.90;;;;;;5005948;28;20026;-78
2023/03/25 01:36:08;;;;;;;11.98;2.92;;;9.30;99.90;;;;;;5005872;28;20041;-64
2023/03/25 01:38:35;;;;;;;23.73;3.25;;;9.40;99.90;;;;;;5003905;28;20042;-65
2023/03/25 01:41:01;;;;;;;17.10;2.83;;;9.30;99.90;;;;;;4989677;28;20038;-64
2023/03/25 01:43:27;;;;;;;18.58;2.83;;;9.30;99.90;;;;;;5011063;28;20026;-65
2023/03/25 01:45:53;;;;;;;23.07;3.67;;;9.30;99.90;;;;;;5005312;28;20077;-65
2023/03/25 01:48:26;;;;;;;16.87;2.43;;;9.30;99.90;;;;;;5009470;28;20022;-65
2023/03/25 01:51:01;;;;;;;19.20;2.72;;;9.30;99.90;;;;;;5005728;28;20026;-65
2023/03/25 01:53:29;;;;;;;16.27;3.08;;;9.20;99.90;;;;;;5014322;28;20104;-65
2023/03/25 01:55:55;;;;;;;19.77;2.63;;;9.20;99.90;;;;;;5001619;28;20062;-64
2023/03/25 01:58:26;;;;;;;11.88;1.65;;;9.20;99.90;;;;;;5011678;28;20037;-64
2023/03/25 02:00:53;;;;;;;16.38;2.78;;;9.20;99.90;;;;;;5007918;28;20041;-68
2023/03/25 02:03:21;;;;;;;10.70;2.08;;;9.20;99.90;;;;;;4993428;28;20030;-65
2023/03/25 02:06:06;;;;;;;26.42;2.88;;;9.20;99.90;;;;;;5013015;28;20388;-66
2023/03/25 02:08:38;;;;;;;16.88;3.03;;;9.20;99.90;;;;;;5005454;28;20404;-64
2023/03/25 02:11:06;;;;;;;17.50;3.00;;;9.20;99.90;;;;;;4990208;28;20341;-64
2023/03/25 02:13:33;;;;;;;17.77;3.33;;;9.10;99.90;;;;;;5010644;28;20033;-67
2023/03/25 02:16:34;;;;;;;12.45;2.30;;;9.10;99.90;;;;;;5015068;28;20029;-64
2023/03/25 02:19:34;;;;;;;15.48;3.67;;;9.00;99.90;;;;;;5014441;28;20049;-63
2023/03/25 02:22:37;;;;;;;21.25;3.03;;;9.00;99.90;;;;;;5014150;28;20026;-63
2023/03/25 02:25:34;;;;;;;16.42;2.65;;;9.00;99.90;;;;;;4993104;28;20070;-63
2023/03/25 02:28:02;;;;;;;;;;;9.00;99.90;;;;;;5012557;28;20104;-64
2023/03/25 02:30:40;;;;;;;17.65;2.85;;;9.00;99.90;;;;;;5009609;28;19913;-65
2023/03/25 02:33:15;;;;;;;16.23;2.90;;;9.00;99.90;;;;;;4998886;28;20022;-64
2023/03/25 02:36:16;;;;;;;15.70;3.22;;;9.10;99.90;;;;;;5001332;28;20030;-63
2023/03/25 02:38:53;;;;;;;17.33;3.33;;;9.10;99.90;;;;;;5005645;28;20018;-66
2023/03/25 02:42:02;;;;;;;22.25;3.10;;;9.10;99.90;;;;;;4997680;28;20330;-77
2023/03/25 02:44:37;;;;;;;21.23;3.35;;;9.10;99.90;;;;;;4934291;29;20040;-65
2023/03/25 02:47:09;;;;;;;16.70;3.28;;;9.10;99.90;;;;;;4935031;29;20039;-66
2023/03/25 02:49:47;;;;;;;18.05;3.58;;;9.10;99.90;;;;;;4972735;28;20026;-63
2023/03/25 02:52:38;;;;;;;16.35;3.67;;;9.10;99.90;;;;;;4998152;28;20034;-64
2023/03/25 02:55:09;;;;;;;20.33;3.38;;;9.10;99.90;;;;;;4995380;28;20038;-65
2023/03/25 02:57:41;;;;;;;19.48;2.30;;;9.10;99.90;;;;;;4997269;28;20054;-64
2023/03/25 03:00:14;;;;;;;14.23;2.60;;;9.10;99.90;;;;;;5011314;28;20038;-65
2023/03/25 03:02:45;;;;;;;26.05;4.20;;;9.10;99.90;;;;;;5002616;28;20030;-78
2023/03/25 03:05:25;;;;;;;17.38;3.50;;;9.10;99.90;;;;;;4992071;28;20089;-64
2023/03/25 03:08:02;;;;;;;18.13;4.15;;;9.10;99.90;;;;;;4999501;28;20026;-64
2023/03/25 03:11:01;;;;;;;21.48;3.10;;;9.10;99.90;;;;;;5004533;28;20327;-83
2023/03/25 03:13:42;;;;;;;18.70;2.80;;;9.10;99.90;;;;;;4976982;28;20045;-78
2023/03/25 03:16:26;;;;;;;22.60;3.67;;;9.10;99.90;;;;;;5003828;28;20422;-77
2023/03/25 03:19:19;;;;;;;22.08;3.75;;;9.10;99.90;;;;;;4989625;28;20116;-80
2023/03/25 03:22:00;;;;;;;24.77;3.05;;;9.10;99.90;;;;;;5000919;28;20026;-78
2023/03/25 03:24:37;;;;;;;30.00;3.55;;;9.10;99.90;;;;;;4984278;28;20030;-77
2023/03/25 03:27:23;;;;;;;29.55;3.97;;;9.10;99.90;;;;;;4986238;28;20030;-79
2023/03/25 03:30:02;;;;;;;14.25;2.53;;;9.10;99.90;;;;;;4991588;28;20026;-77
2023/03/25 03:32:33;;;;;;;18.85;3.03;;;9.10;99.90;;;;;;5001994;28;20553;-78
2023/03/25 03:35:33;;;;;;;24.08;4.43;;;9.20;99.90;;;;;;4999478;28;20029;-81
2023/03/25 03:38:03;;;;;;;21.02;3.08;;;9.20;99.90;;;;;;4997672;28;20030;-77
2023/03/25 03:40:32;;;;;;;25.38;2.88;;;9.10;99.90;;;;;;5006356;28;20018;-86
2023/03/25 03:43:04;;;;;;;22.98;3.78;;;9.20;99.90;;;;;;4999844;28;20030;-82
2023/03/25 03:45:41;;;;;;;15.13;4.05;;;9.20;99.90;;;;;;5003466;28;20022;-79
2023/03/25 03:48:20;;;;;;;19.48;2.88;;;9.20;99.90;;;;;;5010908;28;20036;-84
2023/03/25 03:50:52;;;;;;;16.10;3.20;;;9.20;99.90;;;;;;5004520;28;20312;-78
2023/03/25 03:53:33;;;;;;;18.25;3.00;;;9.10;99.90;;;;;;4989935;28;20033;-81
2023/03/25 03:56:05;;;;;;;12.55;2.78;;;9.10;99.90;;;;;;4991505;28;20080;-77
2023/03/25 03:58:37;;;;;;;16.05;3.78;;;9.00;99.90;;;;;;5003560;28;20037;-81
2023/03/25 04:01:14;;;;;;;22.40;3.72;;;9.00;99.90;;;;;;4989981;28;20034;-78
2023/03/25 04:03:51;;;;;;;20.90;4.13;;;9.00;99.90;;;;;;4989158;28;20027;-78
2023/03/25 04:06:20;;;;;;;16.83;2.95;;;9.00;99.90;;;;;;5000810;28;20034;-84
2023/03/25 04:09:27;;;;;;;13.23;2.25;;;9.00;99.90;;;;;;4986161;28;20041;-79
2023/03/25 04:11:59;;;;;;;18.23;3.13;;;8.90;99.90;;;;;;4969772;28;20062;-78
2023/03/25 04:14:25;;;;;;;13.57;2.78;;;9.00;99.90;;;;;;4972554;28;20046;-82
2023/03/25 04:16:51;;;;;;;18.40;3.28;;;9.00;99.90;;;;;;4940848;29;20322;-79
2023/03/25 04:19:18;;;;;;;17.70;2.97;;;9.00;99.90;;;;;;4940626;28;20048;-79
2023/03/25 04:21:46;;;;;;;21.55;4.03;;;9.00;99.90;;;;;;4974372;28;20109;-81
2023/03/25 04:24:15;;;;;;;27.67;2.88;;;9.00;99.90;;;;;;4952577;28;20437;-79
2023/03/25 04:26:42;;;;;;;22.42;3.53;;;8.90;99.90;;;;;;4971516;28;20050;-79
2023/03/25 04:29:08;;;;;;;18.73;3.08;;;9.00;99.90;;;;;;4972679;28;20027;-78
2023/03/25 04:31:36;;;;;;;19.95;3.50;;;9.00;99.90;;;;;;4948006;28;20035;-79
2023/03/25 04:34:03;;;;;;;18.23;3.47;;;8.90;99.90;;;;;;4974073;28;20039;-78
2023/03/25 04:36:40;;;;;;;34.22;4.75;;;8.90;99.90;;;;;;4971802;28;20054;-82
2023/03/25 04:39:06;;;;;;;;;;;8.90;99.90;;;;;;4952542;28;20126;-77
2023/03/25 04:41:32;;;;;;;21.73;3.05;;;9.00;99.90;;;;;;4954062;28;19913;-80
2023/03/25 04:43:58;;;;;;;14.57;3.20;;;8.90;99.90;;;;;;4973187;28;20098;-80
2023/03/25 04:46:24;;;;;;;23.08;3.28;;;8.90;99.90;;;;;;4986281;28;20042;-77
2023/03/25 04:48:52;;;;;;;25.48;2.50;;;8.90;99.90;;;;;;4997389;28;20428;-80
2023/03/25 04:51:18;;;;;;;15.27;2.78;;;8.90;99.90;;;;;;5002636;28;20022;-76
2023/03/25 04:53:44;;;;;;;18.87;3.37;;;8.90;99.90;;;;;;5008689;28;20025;-79
2023/03/25 04:56:16;;;;;;;28.10;3.73;;;8.90;99.90;;;;;;5001611;28;20076;-77
2023/03/25 04:58:42;;;;;;;22.90;3.97;;;8.90;99.90;;;;;;4995411;28;20057;-74
2023/03/25 05:01:19;;;;;;;14.73;3.42;;;8.90;99.90;;;;;;5002542;28;20030;-67
2023/03/25 05:03:49;;;;;;;24.65;3.08;;;8.80;99.90;;;;;;5000510;28;20038;-77
2023/03/25 05:06:17;;;;;;;31.55;3.30;;;8.90;99.90;;;;;;5008940;28;20377;-79
2023/03/25 05:08:43;;;;;;;24.25;3.58;;;8.80;99.90;;;;;;4983992;28;20026;-76
2023/03/25 05:11:09;;;;;;;23.80;3.43;;;8.80;99.90;;;;;;5010659;28;21582;-76
2023/03/25 05:13:34;;;;;;;22.80;4.10;;;8.80;99.90;;;;;;5014315;28;20053;-77
2023/03/25 05:16:00;;;;;;;29.90;4.50;;;8.80;99.90;;;;;;4990103;28;20437;-77
2023/03/25 05:18:26;;;;;;;27.23;3.43;;;8.70;99.90;;;;;;4993577;28;20121;-73
2023/03/25 05:20:52;;;;;;;24.27;2.90;;;8.80;99.90;;;;;;5002096;28;20038;-76
2023/03/25 05:23:18;;;;;;;31.05;4.57;;;8.80;99.90;;;;;;4993415;28;20029;-75
2023/03/25 05:25:49;;;;;;;29.07;4.03;;;8.80;99.90;;;;;;5009349;28;20073;-76
2023/03/25 05:28:15;;;;;;;25.55;3.70;;;8.80;99.90;;;;;;5005241;28;20026;-73
2023/03/25 05:30:44;;;;;;;20.75;4.40;;;8.80;99.90;;;;;;5008250;28;20449;-75
2023/03/25 05:33:15;;;;;;;17.98;2.95;;;8.80;99.90;;;;;;5009546;28;20027;-76
2023/03/25 05:35:41;;;;;;;27.08;4.60;;;8.80;99.90;;;;;;5005519;28;20025;-75
2023/03/25 05:38:08;;;;;;;31.17;3.95;;;8.70;99.90;;;;;;5013017;28;20029;-74
2023/03/25 05:40:35;;;;;;;;;;;8.80;99.90;;;;;;5012346;28;20061;-76
2023/03/25 05:43:02;;;;;;;23.25;3.42;;;8.80;99.90;;;;;;5007942;28;19910;-72
2023/03/25 05:45:28;;;;;;;16.05;2.78;;;8.80;99.90;;;;;;4987548;28;20034;-78
2023/03/25 05:47:53;;;;;;;24.57;2.77;;;8.70;99.90;;;;;;5009629;28;20033;-77
2023/03/25 05:50:20;;;;;;;21.03;2.40;;;8.70;99.90;;;;;;5007504;28;20420;-79
2023/03/25 05:52:48;;;;;;;32.85;3.80;;;8.80;99.90;;;;;;5013850;28;20109;-76
2023/03/25 05:55:18;;;;;;;34.15;3.55;;;8.70;99.90;;;;;;4994440;28;20045;-73
2023/03/25 05:57:43;;;;;;;25.42;3.88;;;8.70;99.90;;;;;;4987420;28;20022;-76
2023/03/25 06:00:11;;;;;;;24.50;3.80;;;8.70;99.90;;;;;;4995443;28;20037;-76
2023/03/25 06:02:38;;;;;;;21.50;3.25;;;8.80;99.90;;;;;;4992139;28;20035;-77
2023/03/25 06:05:08;;;;;;;18.80;3.35;;;8.90;99.90;;;;;;4997827;28;20030;-75
2023/03/25 06:07:36;;;;;;;21.02;3.58;;;8.90;99.90;;;;;;4998189;28;20321;-76
2023/03/25 06:10:04;;;;;;;30.75;3.15;;;8.90;99.90;;;;;;5003683;28;20045;-75
2023/03/25 06:12:32;;;;;;;28.48;4.15;;;8.90;99.90;;;;;;4999015;28;20061;-79
2023/03/25 06:14:58;;;;;;;24.33;3.47;;;8.80;99.90;;;;;;5001675;28;20101;-79
2023/03/25 06:17:24;;;;;;;21.50;3.63;;;8.80;99.90;;;;;;4996224;28;20061;-77
2023/03/25 06:19:53;;;;;;;23.33;3.20;;;8.80;99.90;;;;;;5000602;28;20125;-74
2023/03/25 06:22:21;;;;;;;27.83;3.35;;;8.70;99.90;;;;;;4990880;28;20066;-77
2023/03/25 06:24:51;;;;;;;25.15;3.55;;;8.70;99.90;;;;;;5001123;28;20110;-78
2023/03/25 06:27:18;;;;;;;20.10;3.22;;;8.60;99.90;;;;;;5000573;28;20088;-70
2023/03/25 06:29:43;;;;;;;;;;;8.60;99.90;;;;;;4995973;28;20018;-79
2023/03/25 06:32:11;;;;;;;21.43;3.87;;;8.60;99.90;;;;;;5001329;28;19910;-76
2023/03/25 06:34:38;;;;;;;18.05;3.42;;;8.50;99.90;;;;;;5005794;28;20030;-77
2023/03/25 06:37:04;;;;;;;18.88;3.15;;;8.50;99.90;;;;;;5006726;28;20424;-76
2023/03/25 06:39:30;;;;;;;16.90;2.42;;;8.50;99.90;;;;;;4990765;28;20409;-78
2023/03/25 06:41:59;;;;;;;25.07;3.63;;;8.40;99.90;;;;;;4996791;28;20046;-79
2023/03/25 06:44:25;;;;;;;23.20;4.25;;;8.50;99.90;;;;;;4998192;28;20037;-78
2023/03/25 06:46:51;;;;;;;22.58;2.88;;;8.50;99.90;;;;;;5004107;28;20033;-77
2023/03/25 06:49:17;;;;;;;19.80;3.47;;;8.60;99.90;;;;;;5001478;28;20033;-76
2023/03/25 06:51:43;;;;;;;44.20;3.70;;;8.60;99.90;;;;;;5008932;28;20029;-76
2023/03/25 06:54:08;;;;;;;18.40;2.77;;;8.70;99.90;;;;;;5011627;28;20028;-67
2023/03/25 06:56:34;;;;;;;13.00;2.40;;;8.70;99.90;;;;;;4983977;28;20030;-76
2023/03/25 06:59:00;;;;;;;23.97;3.07;;;8.70;99.90;;;;;;5015521;28;20030;-76
2023/03/25 07:01:25;;;;;;;21.33;3.23;;;8.70;99.90;;;;;;5006203;28;20472;-66
2023/03/25 07:03:51;;;;;;;15.33;3.13;;;8.80;99.90;;;;;;5007592;28;20040;-71
2023/03/25 07:06:22;;;;;;;21.80;3.10;;;8.70;99.90;;;;;;5003720;28;20026;-66
2023/03/25 07:08:48;;;;;;;23.10;3.17;;;8.80;99.90;;;;;;5007102;28;20113;-76
2023/03/25 07:11:24;;;;;;;18.93;2.33;;;8.80;99.90;;;;;;5004602;28;20121;-64
2023/03/25 07:13:52;;;;;;;33.43;3.67;;;8.80;99.90;;;;;;5006680;28;20022;-77
2023/03/25 07:16:22;;;;;;;28.42;3.15;;;8.90;99.90;;;;;;4997055;28;20073;-77
2023/03/25 07:18:49;;;;;;;17.15;2.83;;;8.90;99.90;;;;;;5007309;28;20034;-74
2023/03/25 07:21:15;;;;;;;16.27;3.17;;;8.90;99.90;;;;;;5000887;28;20026;-66
2023/03/25 07:23:40;;;;;;;20.73;3.73;;;9.00;99.90;;;;;;5007179;28;20484;-74
2023/03/25 07:26:06;;;;;;;17.00;3.43;;;9.00;99.90;;;;;;5017847;28;20028;-78
2023/03/25 07:28:32;;;;;;;31.00;3.50;;;9.10;99.90;;;;;;4983059;28;20026;-78
2023/03/25 07:30:58;;;;;;;34.40;3.73;;;9.10;99.90;;;;;;5007355;28;20034;-74
2023/03/25 07:33:23;;;;;;;24.00;3.60;;;9.20;99.90;;;;;;5000976;28;20018;-78
2023/03/25 07:35:49;;;;;;;18.57;3.40;;;9.20;99.90;;;;;;4994904;28;20435;-77
2023/03/25 07:38:16;;;;;;;25.95;2.85;;;9.20;99.90;;;;;;4996241;28;20047;-69
2023/03/25 07:40:42;;;;;;;17.90;3.80;;;9.30;99.90;;;;;;5002087;28;20037;-75
2023/03/25 07:43:07;;;;;;;15.63;3.23;;;9.30;99.90;;;;;;4991638;28;20034;-74
2023/03/25 07:45:33;;;;;;;23.37;2.87;;;9.30;99.90;;;;;;5009165;28;20068;-77
2023/03/25 07:48:00;;;;;;;14.97;3.20;;;9.30;99.90;;;;;;5006226;28;20097;-78
2023/03/25 07:50:26;;;;;;;;;;;9.40;99.90;;;;;;5000424;28;20025;-73
2023/03/25 07:52:53;;;;;;;12.93;1.60;;;9.40;99.90;;;;;;5007751;28;20232;-70
2023/03/25 07:55:19;;;;;;;20.17;3.35;;;9.50;99.90;;;;;;5017364;28;20323;-75
2023/03/25 07:57:45;;;;;;;22.83;3.20;;;9.50;99.90;;;;;;5011464;28;20030;-73
2023/03/25 08:00:11;;;;;;;25.47;3.37;;;9.50;99.90;;;;;;5004083;28;20480;-70
2023/03/25 08:02:38;;;;;;;15.80;2.78;;;9.60;99.90;;;;;;5011696;28;20025;-74
2023/03/25 08:05:04;;;;;;;20.23;2.42;;;9.60;99.90;;;;;;4997245;28;20038;-76
2023/03/25 08:07:31;;;;;;;15.32;2.22;;;9.60;99.90;;;;;;4997874;28;20033;-76
2023/03/25 08:09:57;;;;;;;19.70;3.10;;;9.60;99.90;;;;;;5007670;28;20026;-76
2023/03/25 08:12:22;;;;;;;20.97;1.97;;;9.60;99.90;;;;;;4998803;28;20062;-78
2023/03/25 08:14:48;;;;;;;16.20;3.03;;;9.50;99.90;;;;;;5010113;28;20113;-75
2023/03/25 08:17:14;;;;;;;15.30;1.90;;;9.40;99.90;;;;;;5005771;28;20026;-74
2023/03/25 08:19:40;;;;;;;27.38;3.22;;;9.40;99.90;;;;;;5012176;28;20029;-76
2023/03/25 08:22:06;;;;;;;15.97;2.97;;;9.40;99.90;;;;;;5003554;28;20038;-63
2023/03/25 08:24:31;;;;;;;13.47;2.60;;;9.40;99.90;;;;;;5003783;28;20026;-68
2023/03/25 08:27:01;;;;;;;18.03;2.83;;;9.40;99.90;;;;;;5010021;28;20046;-76
2023/03/25 08:29:28;;;;;;;14.85;2.10;;;9.50;99.90;;;;;;5012382;28;20014;-68
2023/03/25 08:31:54;;;;;;;20.70;3.95;;;9.50;99.90;;;;;;5008141;28;20035;-71
2023/03/25 08:34:21;;;;;;;14.48;3.08;;;9.60;99.90;;;;;;5005183;28;20026;-65
2023/03/25 08:36:48;;;;;;;21.27;2.97;;;9.50;99.90;;;;;;5005504;28;20117;-74
2023/03/25 08:39:16;;;;;;;18.98;2.65;;;9.60;99.90;;;;;;4993547;28;20026;-73
2023/03/25 08:41:42;;;;;;;22.67;2.63;;;9.60;99.90;;;;;;5001711;28;20045;-78
2023/03/25 08:44:08;;;;;;;20.92;3.20;;;9.50;99.90;;;;;;4998030;28;20023;-79
2023/03/25 08:46:35;;;;;;;20.77;2.70;;;9.50;99.90;;;;;;5005765;28;20041;-75
2023/03/25 08:49:01;;;;;;;17.80;3.03;;;9.60;99.90;;;;;;5000747;28;20037;-70
2023/03/25 08:51:26;;;;;;;14.93;2.90;;;9.60;99.90;;;;;;5007769;28;20038;-72
2023/03/25 08:53:52;;;;;;;18.80;2.80;;;9.70;99.90;;;;;;5002405;28;20505;-76
2023/03/25 08:56:17;;;;;;;9.07;1.93;;;9.80;99.90;;;;;;4987255;28;20125;-77
2023/03/25 08:58:43;;;;;;;17.50;3.20;;;9.80;99.90;;;;;;4989897;28;20044;-72
2023/03/25 09:01:10;;;;;;;17.17;3.23;;;9.80;99.90;;;;;;5008531;28;20105;-79
2023/03/25 09:03:37;;;;;;;25.02;3.03;;;9.80;99.90;;;;;;5012237;28;20034;-75
2023/03/25 09:06:07;;;;;;;14.82;3.22;;;9.80;99.90;;;;;;5001705;28;20026;-81
2023/03/25 09:08:33;;;;;;;18.13;3.20;;;9.90;99.90;;;;;;5002877;28;20480;-76
2023/03/25 09:10:59;;;;;;;15.65;2.25;;;10.00;99.90;;;;;;5001250;28;20373;-69
2023/03/25 09:13:24;;;;;;;17.40;2.83;;;10.20;99.90;;;;;;4999833;28;20105;-75
2023/03/25 09:15:50;;;;;;;15.57;2.00;;;10.30;99.90;;;;;;5000873;28;20040;-78
2023/03/25 09:18:16;;;;;;;21.00;2.50;;;10.40;99.90;;;;;;4993732;28;20124;-77
2023/03/25 09:20:46;;;;;;;19.60;2.13;;;10.40;99.90;;;;;;4997885;28;20033;-72
2023/03/25 09:23:12;;;;;;;21.10;2.63;;;10.40;99.90;;;;;;4988961;28;20053;-76
2023/03/25 09:25:37;;;;;;;12.67;2.27;;;10.50;99.90;;;;;;4996016;28;20385;-77
2023/03/25 09:28:03;;;;;;;20.13;2.20;;;10.60;99.90;;;;;;5002775;28;20021;-72
2023/03/25 09:30:29;;;;;;;7.33;2.37;;;10.60;99.90;;;;;;4980652;28;20029;-68
2023/03/25 09:32:54;;;;;;;12.73;1.73;;;10.60;99.90;;;;;;4998616;28;20027;-76
2023/03/25 09:35:20;;;;;;;15.53;2.20;;;10.70;99.90;;;;;;4999731;28;20364;-72
2023/03/25 09:37:46;;;;;;;12.17;2.53;;;10.80;99.90;;;;;;5001041;28;20677;-71
2023/03/25 09:40:18;;;;;;;10.47;2.63;;;10.90;99.90;;;;;;4988831;28;20432;-78
2023/03/25 09:43:20;;;;;;;21.30;3.22;;;11.00;99.90;;;;;;4999653;28;20328;-77
2023/03/25 09:45:47;;;;;;;20.45;2.92;;;11.20;99.90;;;;;;4995486;28;20037;-77
2023/03/25 09:48:28;;;;;;;17.00;2.80;;;11.10;99.90;;;;;;4999016;28;20369;-79
2023/03/25 09:50:57;;;;;;;17.80;2.20;;;11.10;99.90;;;;;;4984044;28;20026;-78
2023/03/25 09:53:36;;;;;;;17.85;3.17;;;11.00;99.90;;;;;;5004636;28;20113;-77
2023/03/25 09:56:05;;;;;;;18.60;2.83;;;11.00;99.90;;;;;;5007511;28;20084;-76
2023/03/25 09:59:02;;;;;;;24.92;3.15;;;11.00;99.90;;;;;;4990532;28;20440;-71
2023/03/25 10:01:52;;;;;;;18.42;2.70;;;11.10;99.90;;;;;;5006588;28;20148;-71
2023/03/25 10:04:42;;;;;;;23.58;2.25;;;11.20;99.90;;;;;;4986121;28;21427;-73
2023/03/25 10:07:21;;;;;;;16.88;3.25;;;11.50;99.90;;;;;;4982664;28;20077;-70
2023/03/25 10:09:55;;;;;;;17.10;2.42;;;11.50;99.90;;;;;;5002350;28;20088;-68
2023/03/25 10:12:24;;;;;;;12.48;2.92;;;11.50;99.90;;;;;;5003946;28;20121;-79
2023/03/25 10:14:55;;;;;;;18.73;2.60;;;11.50;99.90;;;;;;5004242;28;20027;-77
2023/03/25 10:17:35;;;;;;;25.52;2.78;;;11.40;99.90;;;;;;4997410;28;20433;-82
2023/03/25 10:20:16;;;;;;;20.55;3.10;;;11.40;99.90;;;;;;5008828;28;20033;-75
2023/03/25 10:23:03;;;;;;;13.48;2.80;;;11.60;99.90;;;;;;4997870;28;20053;-69
2023/03/25 10:25:34;;;;;;;24.80;2.92;;;11.70;99.90;;;;;;4994292;28;20113;-73
2023/03/25 10:28:00;;;;;;;14.15;2.72;;;11.70;99.90;;;;;;4982923;28;20022;-76
2023/03/25 10:30:40;;;;;;;19.38;3.08;;;11.50;99.90;;;;;;4980165;28;20333;-79
2023/03/25 10:33:17;;;;;;;12.93;2.47;;;11.30;99.90;;;;;;4977656;28;20313;-72
2023/03/25 10:35:47;;;;;;;19.65;3.58;;;11.20;99.90;;;;;;4997691;28;20118;-77
2023/03/25 10:38:20;;;;;;;14.50;2.97;;;11.30;99.90;;;;;;5002229;28;20040;-69
2023/03/25 10:41:12;;;;;;;17.30;2.25;;;11.60;99.90;;;;;;4994701;28;20026;-77
2023/03/25 10:43:40;;;;;;;24.45;3.13;;;11.80;99.90;;;;;;4998779;28;20089;-70
2023/03/25 10:46:32;;;;;;;14.93;2.33;;;11.90;99.90;;;;;;4962209;28;20377;-71
2023/03/25 10:48:58;;;;;;;24.20;3.03;;;11.90;99.90;;;;;;4997074;28;20085;-69
2023/03/25 10:51:30;;;;;;;18.20;2.53;;;11.80;99.90;;;;;;4996952;28;20033;-70
2023/03/25 10:53:57;;;;;;;44.22;5.05;;;11.80;99.90;;;;;;5002877;28;20670;-78
2023/03/25 10:56:37;;;;;;;20.27;2.88;;;12.00;99.90;;;;;;5002417;28;20123;-71
2023/03/25 10:59:19;;;;;;;21.23;3.30;;;12.20;99.90;;;;;;4999166;28;20077;-77
2023/03/25 11:01:45;;;;;;;20.13;2.58;;;12.30;99.90;;;;;;4996360;28;20038;-70
2023/03/25 11:04:16;;;;;;;17.52;3.63;;;12.30;99.90;;;;;;4985337;28;20030;-70
2023/03/25 11:06:49;;;;;;;18.70;2.90;;;12.20;99.90;;;;;;5000730;28;20160;-79
2023/03/25 11:09:23;;;;;;;19.63;2.53;;;12.10;99.90;;;;;;5002826;28;20054;-72
2023/03/25 11:11:49;;;;;;;25.65;3.42;;;12.30;99.90;;;;;;4999288;28;20122;-69
2023/03/25 11:14:20;;;;;;;19.02;2.78;;;12.40;99.90;;;;;;4988835;28;20056;-70
2023/03/25 11:16:51;;;;;;;8.95;2.42;;;12.30;99.90;;;;;;4996772;28;20034;-67
2023/03/25 11:19:41;;;;;;;13.90;2.20;;;12.20;99.90;;;;;;4979817;28;20120;-65
2023/03/25 11:22:12;;;;;;;11.43;2.92;;;12.10;99.90;;;;;;4994078;28;20040;-78
2023/03/25 11:24:44;;;;;;;17.05;3.65;;;12.00;99.90;;;;;;5009785;28;20608;-70
2023/03/25 11:27:22;;;;;;;16.30;3.08;;;12.20;99.90;;;;;;5001699;28;20048;-73
2023/03/25 11:30:14;;;;;;;13.60;2.70;;;12.40;99.90;;;;;;4999387;28;20034;-72
2023/03/25 11:32:40;;;;;;;12.25;2.20;;;12.50;99.90;;;;;;5004764;28;20030;-73
2023/03/25 11:35:22;;;;;;;13.18;2.05;;;12.50;99.90;;;;;;4992821;28;20657;-65
2023/03/25 11:37:57;;;;;;;8.55;1.52;;;12.30;99.90;;;;;;5000788;28;20044;-72
2023/03/25 11:40:23;;;;;;;11.05;1.83;;;12.30;99.90;;;;;;4984428;28;20018;-69
2023/03/25 11:42:55;;;;;;;10.52;2.35;;;12.30;99.90;;;;;;4992976;28;20124;-70
2023/03/25 11:45:37;;;;;;;10.85;2.42;;;12.30;99.90;;;;;;5006120;28;20459;-67
2023/03/25 11:48:30;;;;;;;19.30;2.22;;;12.20;99.90;;;;;;5010313;28;20023;-68
2023/03/25 11:51:00;;;;;;;12.70;2.97;;;12.00;99.90;;;;;;4991603;28;20113;-66
2023/03/25 11:53:30;;;;;;;20.48;2.60;;;11.90;99.90;;;;;;5004748;28;20437;-67
2023/03/25 11:56:03;;;;;;;18.63;2.90;;;11.90;99.90;;;;;;5008018;28;20027;-74
2023/03/25 11:58:36;;;;;;;15.43;2.63;;;12.00;99.90;;;;;;5004706;28;20113;-74
2023/03/25 12:01:07;;;;;;;11.63;2.15;;;11.90;99.90;;;;;;5007953;28;20408;-73
2023/03/25 12:03:34;;;;;;;25.67;3.80;;;11.90;99.90;;;;;;5003976;28;20030;-70
2023/03/25 12:06:15;;;;;;;20.75;2.50;;;11.90;99.90;;;;;;5005288;28;20026;-74
2023/03/25 12:08:48;;;;;;;9.70;2.33;;;12.00;99.90;;;;;;4993856;28;20026;-65
2023/03/25 12:11:20;;;;;;;23.42;3.35;;;12.10;99.90;;;;;;5006918;28;20137;-65
2023/03/25 12:13:55;;;;;;;18.40;2.67;;;12.20;99.90;;;;;;4988852;28;20026;-63
2023/03/25 12:16:39;;;;;;;11.23;1.58;;;12.30;99.90;;;;;;4994571;28;20195;-63
2023/03/25 12:19:19;;;;;;;20.05;2.30;;;12.20;99.90;;;;;;5010430;28;20062;-64
2023/03/25 12:22:02;;;;;;;15.15;2.72;;;12.10;99.90;;;;;;5006475;28;20026;-64
2023/03/25 12:24:49;;;;;;;10.95;1.92;;;12.10;99.90;;;;;;5011563;28;20509;-64
2023/03/25 12:27:30;;;;;;;14.93;1.92;;;12.10;99.90;;;;;;4995342;28;20038;-76
2023/03/25 12:30:14;;;;;;;13.98;2.88;;;12.40;99.90;;;;;;4999659;28;20026;-63
2023/03/25 12:33:05;;;;;;;24.38;2.40;;;12.70;99.90;;;;;;5010244;28;20057;-76
2023/03/25 12:35:33;;;;;;;121.63;17.00;;;12.80;99.90;;;;;;4980681;28;20671;-64
2023/03/25 12:38:43;;;;;;;17.13;2.25;;;12.80;99.90;;;;;;4998644;28;21113;-77
2023/03/25 12:41:30;;;;;;;14.38;2.17;;;12.90;99.90;;;;;;4916364;29;20028;-78
2023/03/25 12:44:01;;;;;;;14.50;2.42;;;12.80;99.90;;;;;;4920500;29;20048;-64
2023/03/25 12:46:53;;;;;;;16.58;2.42;;;12.80;99.90;;;;;;4933717;29;20028;-65
2023/03/25 12:49:37;;;;;;;10.68;1.83;;;12.90;99.90;;;;;;4918740;29;20035;-65
2023/03/25 12:52:30;;;;;;;15.00;2.72;;;12.80;99.90;;;;;;4930719;29;20028;-63
2023/03/25 12:55:23;;;;;;;12.45;2.05;;;13.00;99.90;;;;;;4917453;29;20093;-64
2023/03/25 12:58:13;;;;;;;10.73;1.73;;;13.10;99.90;;;;;;4919183;29;20119;-65
2023/03/25 13:01:05;;;;;;;12.75;2.35;;;13.20;99.90;;;;;;4917721;29;20056;-83
2023/03/25 13:03:59;;;;;;;14.57;2.15;;;13.00;99.90;;;;;;4906590;29;20401;-64
2023/03/25 13:06:45;;;;;;;7.38;1.48;;;12.90;99.90;;;;;;4929290;29;20028;-64
2023/03/25 13:09:23;;;;;;;9.18;1.42;;;12.80;99.90;;;;;;4918681;29;20123;-64